Pagrindinis puslapis
METAR-TAF:

METAR-TAF

Oro uostai :

Elatas, Izraelis

platuma: 29-43-25N, ilguma: 35-00-41E, Aukštis: 88 m

Dabartinis oras

Ataskaita buvo paskelbta 45 minutes, ne 11:50 UTC
Vėjas 16 kt iš Šiaurės/Šiaurės Rytų
Temperatūra 31°C
Drėgmė 16%
Slėgis 1008 hPa
Matomumas 10 km arba daugiau
nėra debesų žemiau 1500 m ir nėra kamuolinių lietaus debesų

METAR: LLER 201150Z 02016KT CAVOK 31/02 Q1008

Laikas: 15:35 (12:35 UTC)

Prognozė

Ataskaita buvo paskelbta 1 valandą ir 32 minutes, ne 11:03 UTC
Prognozė galioja nuo 20 metu 12 UTC su 21 metu 12 UTC
Vėjas 18 kt iš Šiaurės
Matomumas 10 km arba daugiau
nėra debesų žemiau 1500 m ir nėra kamuolinių lietaus debesų
Tapsmas
nuo 20 metu 15 UTC su 20 metu 17 UTC
Vėjas 8 kt iš Šiaurės
Tapsmas
nuo 21 metu 04 UTC su 21 metu 06 UTC
Vėjas 16 kt iš Šiaurės

TAF: LLER 201103Z 2012/2112 01018KT CAVOK BECMG 2015/2017 01008KT BECMG 2104/2106 01016KT TX33/2013Z TN20/2104Z

Orai ataskaitas ir orų prognozės (METAR, TAF).

turimą stotys yra geltonos ir raudonos taškus žemėlapyje.

Perkelti pele per norėdami pamatyti stoties vardą.

Tada spustelėkite, norėdami matyti oro stebėjimo ir prognozės.

Norėdami pakeisti žemėlapį: spustelėkite ant žalios mygtukų su juodo kryžiaus žemyn,; žalią mygtuką su brūkšneliu, jei norite nutolinti; arba žalių rodyklių gretimoms žemėlapius.


METAR-TAF: